臺北飛航情報區 - 海峽席

METAR RCTP 230630Z 26010KT 9999 FEW022 31/25 Q1008 NOSIG RMK A2978=

站台狀態:Online
最後更新:2019-04-23 14:45:03